Time;durP1;ratioP1;P1;durP2;ratioP2;P2;SDS_P1;SDS_P2;PMS_P1;PMS_P2;Temp;Humidity;BMP_temperature;BMP_pressure;BME280_temperature;BME280_humidity;BME280_pressure;Samples;Min_cycle;Max_cycle;Signal;HPM_P1;HPM_P2
2023/03/06 00:01:36;;;;;;;1999.90;999.90;;;3.70;99.90;;;;;;5053597;28;20168;-68
2023/03/06 00:04:02;;;;;;;1999.90;999.90;;;3.70;99.90;;;;;;5053502;28;20182;-68
2023/03/06 00:06:28;;;;;;;1999.90;999.90;;;3.70;99.90;;;;;;5053367;28;20198;-68
2023/03/06 00:08:53;;;;;;;1999.90;999.90;;;3.70;99.90;;;;;;5053349;28;20203;-70
2023/03/06 00:11:19;;;;;;;1999.90;999.90;;;3.60;99.90;;;;;;5053474;28;20449;-69
2023/03/06 00:13:45;;;;;;;1999.90;999.90;;;3.70;99.90;;;;;;5053105;28;20174;-68
2023/03/06 00:16:10;;;;;;;1999.90;999.90;;;3.70;99.90;;;;;;5053036;28;20418;-68
2023/03/06 00:18:36;;;;;;;1999.90;999.90;;;3.60;99.90;;;;;;5053253;28;20609;-68
2023/03/06 00:21:06;;;;;;;1999.90;999.90;;;3.60;99.90;;;;;;5052442;28;20192;-69
2023/03/06 00:23:32;;;;;;;1999.90;999.90;;;3.50;99.90;;;;;;5052952;28;20175;-68
2023/03/06 00:25:57;;;;;;;1999.90;999.90;;;3.60;99.90;;;;;;5052886;28;20701;-69
2023/03/06 00:28:23;;;;;;;1999.90;999.90;;;3.60;99.90;;;;;;5052944;28;20628;-68
2023/03/06 00:30:49;;;;;;;1999.90;999.90;;;3.60;99.90;;;;;;5034988;28;20215;-69
2023/03/06 00:33:15;;;;;;;1999.90;999.90;;;3.60;99.90;;;;;;5052830;28;20172;-68
2023/03/06 00:35:41;;;;;;;1999.90;999.90;;;3.60;99.90;;;;;;5052907;28;20191;-68
2023/03/06 00:38:10;;;;;;;1999.90;999.90;;;3.60;99.90;;;;;;5052758;28;20409;-69
2023/03/06 00:40:36;;;;;;;1999.90;999.90;;;3.60;99.90;;;;;;5052770;28;20298;-70
2023/03/06 00:43:01;;;;;;;1999.90;999.90;;;3.70;99.90;;;;;;5034740;28;20505;-68
2023/03/06 00:45:27;;;;;;;1999.90;999.90;;;3.70;99.90;;;;;;5052672;28;20168;-69
2023/03/06 00:47:52;;;;;;;1999.90;999.90;;;3.60;99.90;;;;;;5052563;28;20260;-69
2023/03/06 00:50:18;;;;;;;1999.90;999.90;;;3.70;99.90;;;;;;5052593;28;20195;-68
2023/03/06 00:52:44;;;;;;;1999.90;999.90;;;3.60;99.90;;;;;;5052391;28;20221;-69
2023/03/06 00:55:10;;;;;;;1999.90;999.90;;;3.60;99.90;;;;;;5052379;28;20209;-69
2023/03/06 00:57:36;;;;;;;1999.90;999.90;;;3.60;99.90;;;;;;5052272;28;20250;-68
2023/03/06 01:00:03;;;;;;;1999.90;999.90;;;3.60;99.90;;;;;;5052370;28;20219;-69
2023/03/06 01:02:28;;;;;;;1999.90;999.90;;;3.60;99.90;;;;;;5052187;28;20160;-67
2023/03/06 01:04:54;;;;;;;1999.90;999.90;;;3.60;99.90;;;;;;5052383;28;20782;-69
2023/03/06 01:07:19;;;;;;;1999.90;999.90;;;3.60;99.90;;;;;;5052250;28;20178;-68
2023/03/06 01:09:45;;;;;;;1999.90;999.90;;;3.60;99.90;;;;;;5052097;28;20305;-68
2023/03/06 01:12:11;;;;;;;1999.90;999.90;;;3.70;99.90;;;;;;5052438;28;20886;-68
2023/03/06 01:14:37;;;;;;;1999.90;999.90;;;3.60;99.90;;;;;;5052096;28;20227;-68
2023/03/06 01:17:03;;;;;;;1999.90;999.90;;;3.70;99.90;;;;;;5052142;28;20559;-68
2023/03/06 01:19:29;;;;;;;1999.90;999.90;;;3.70;99.90;;;;;;5052076;28;20434;-70
2023/03/06 01:21:54;;;;;;;1999.90;999.90;;;3.70;99.90;;;;;;5051915;28;20413;-70
2023/03/06 01:24:20;;;;;;;1999.90;999.90;;;3.70;99.90;;;;;;5052103;28;20202;-69
2023/03/06 01:26:45;;;;;;;1999.90;999.90;;;3.70;99.90;;;;;;5052155;28;20168;-69
2023/03/06 01:29:11;;;;;;;1999.90;999.90;;;3.70;99.90;;;;;;5052084;28;20171;-69
2023/03/06 01:31:36;;;;;;;1999.90;999.90;;;3.70;99.90;;;;;;5051910;28;20171;-68
2023/03/06 01:34:02;;;;;;;1999.90;999.90;;;3.70;99.90;;;;;;5051784;28;20571;-68
2023/03/06 01:36:28;;;;;;;1999.90;999.90;;;3.70;99.90;;;;;;5051723;28;20172;-68
2023/03/06 01:38:53;;;;;;;1999.90;999.90;;;3.80;99.90;;;;;;5051955;28;20622;-69
2023/03/06 01:41:20;;;;;;;1999.90;999.90;;;3.70;99.90;;;;;;5051532;28;20278;-68
2023/03/06 01:43:46;;;;;;;1999.90;999.90;;;3.70;99.90;;;;;;5051811;28;20251;-68
2023/03/06 01:46:27;;;;;;;1999.90;999.90;;;3.70;99.90;;;;;;5051692;28;20399;-68
2023/03/06 01:49:17;;;;;;;1999.90;999.90;;;3.70;99.90;;;;;;5051657;28;20538;-69
2023/03/06 01:51:46;;;;;;;1999.90;999.90;;;3.70;99.90;;;;;;5051542;28;20430;-68
2023/03/06 01:54:17;;;;;;;1999.90;999.90;;;3.70;99.90;;;;;;5051797;28;20599;-68
2023/03/06 01:56:47;;;;;;;1999.90;999.90;;;3.60;99.90;;;;;;5051793;28;20402;-68
2023/03/06 01:59:13;;;;;;;1999.90;999.90;;;3.70;99.90;;;;;;5051562;28;20956;-68
2023/03/06 02:01:40;;;;;;;1999.90;999.90;;;3.60;99.90;;;;;;5051496;28;20413;-68
2023/03/06 02:04:07;;;;;;;1999.90;999.90;;;3.60;99.90;;;;;;5051763;28;20180;-68
2023/03/06 02:06:36;;;;;;;1999.90;999.90;;;3.50;99.90;;;;;;5051764;28;20406;-68
2023/03/06 02:09:04;;;;;;;1999.90;999.90;;;3.50;99.90;;;;;;5051663;28;20523;-68
2023/03/06 02:11:30;;;;;;;1999.90;999.90;;;3.50;99.90;;;;;;5051364;28;20871;-67
2023/03/06 02:13:55;;;;;;;1999.90;999.90;;;3.50;99.90;;;;;;5051427;28;20434;-68
2023/03/06 02:16:25;;;;;;;1999.90;999.90;;;3.50;99.90;;;;;;5051567;28;20213;-68
2023/03/06 02:18:52;;;;;;;1999.90;999.90;;;3.50;99.90;;;;;;5051501;28;20637;-67
2023/03/06 02:21:22;;;;;;;1999.90;999.90;;;3.40;99.90;;;;;;5051237;28;20234;-68
2023/03/06 02:23:52;;;;;;;1999.90;999.90;;;3.40;99.90;;;;;;5051497;28;20880;-68
2023/03/06 02:26:19;;;;;;;1999.90;999.90;;;3.40;99.90;;;;;;5051517;28;20637;-68
2023/03/06 02:28:45;;;;;;;1999.90;999.90;;;3.40;99.90;;;;;;5051526;28;20426;-68
2023/03/06 02:31:23;;;;;;;1999.90;999.90;;;3.50;99.90;;;;;;5051531;28;20442;-69
2023/03/06 02:34:27;;;;;;;1999.90;999.90;;;3.50;99.90;;;;;;5051298;28;20224;-68
2023/03/06 02:37:05;;;;;;;1999.90;999.90;;;3.50;99.90;;;;;;5051036;28;20489;-68
2023/03/06 02:39:35;;;;;;;1999.90;999.90;;;3.50;99.90;;;;;;5051372;28;20183;-68
2023/03/06 02:42:00;;;;;;;1999.90;999.90;;;3.50;99.90;;;;;;5051121;28;20163;-68
2023/03/06 02:44:27;;;;;;;1999.90;999.90;;;3.50;99.90;;;;;;5051971;28;20414;-69
2023/03/06 02:46:53;;;;;;;1999.90;999.90;;;3.50;99.90;;;;;;5054702;28;20170;-68
2023/03/06 02:49:18;;;;;;;1999.90;999.90;;;3.50;99.90;;;;;;5054786;28;20398;-67
2023/03/06 02:51:44;;;;;;;1999.90;999.90;;;3.60;99.90;;;;;;5054608;28;20172;-68
2023/03/06 02:54:09;;;;;;;1999.90;999.90;;;3.70;99.90;;;;;;5054689;28;20183;-68
2023/03/06 02:56:35;;;;;;;1999.90;999.90;;;3.60;99.90;;;;;;5054680;28;20166;-69
2023/03/06 02:59:01;;;;;;;1999.90;999.90;;;3.60;99.90;;;;;;5054622;28;20247;-67
2023/03/06 03:01:26;;;;;;;1999.90;999.90;;;3.70;99.90;;;;;;5054348;28;20586;-68
2023/03/06 03:03:52;;;;;;;1999.90;999.90;;;3.70;99.90;;;;;;5054546;28;20172;-68
2023/03/06 03:06:18;;;;;;;1999.90;999.90;;;3.60;99.90;;;;;;5054383;28;20167;-68
2023/03/06 03:08:43;;;;;;;1999.90;999.90;;;3.70;99.90;;;;;;5054648;28;20628;-68
2023/03/06 03:11:09;;;;;;;1999.90;999.90;;;3.70;99.90;;;;;;5054261;28;20199;-68
2023/03/06 03:13:36;;;;;;;1999.90;999.90;;;3.60;99.90;;;;;;5054196;28;20553;-68
2023/03/06 03:16:07;;;;;;;1999.90;999.90;;;3.60;99.90;;;;;;5054147;28;20196;-68
2023/03/06 03:18:34;;;;;;;1999.90;999.90;;;3.60;99.90;;;;;;5054352;28;20500;-68
2023/03/06 03:21:00;;;;;;;1999.90;999.90;;;3.60;99.90;;;;;;5054135;28;20187;-69
2023/03/06 03:23:26;;;;;;;1999.90;999.90;;;3.70;99.90;;;;;;5054206;28;20407;-69
2023/03/06 03:25:52;;;;;;;1999.90;999.90;;;3.60;99.90;;;;;;5054055;28;20402;-68
2023/03/06 03:28:18;;;;;;;1999.90;999.90;;;3.60;99.90;;;;;;5054238;28;20767;-68
2023/03/06 03:30:43;;;;;;;1999.90;999.90;;;3.60;99.90;;;;;;5053995;28;20673;-69
2023/03/06 03:33:09;;;;;;;1999.90;999.90;;;3.60;99.90;;;;;;5035912;28;20414;-67
2023/03/06 03:35:34;;;;;;;1999.90;999.90;;;3.60;99.90;;;;;;5053588;28;20222;-69
2023/03/06 03:38:00;;;;;;;1999.90;999.90;;;3.60;99.90;;;;;;5053957;28;20171;-69
2023/03/06 03:40:26;;;;;;;1999.90;999.90;;;3.60;99.90;;;;;;5053835;28;20627;-68
2023/03/06 03:42:52;;;;;;;1999.90;999.90;;;3.50;99.90;;;;;;5053748;28;20494;-68
2023/03/06 03:45:18;;;;;;;1999.90;999.90;;;3.50;99.90;;;;;;5053867;28;20535;-69
2023/03/06 03:47:43;;;;;;;1999.90;999.90;;;3.50;99.90;;;;;;5035830;28;20554;-68
2023/03/06 03:50:10;;;;;;;1999.90;999.90;;;3.50;99.90;;;;;;5053619;28;20183;-69
2023/03/06 03:52:36;;;;;;;1999.90;999.90;;;3.50;99.90;;;;;;5053465;28;20172;-67
2023/03/06 03:55:02;;;;;;;1999.90;999.90;;;3.40;99.90;;;;;;5053386;28;20523;-68
2023/03/06 03:57:27;;;;;;;1999.90;999.90;;;3.50;99.90;;;;;;5052362;28;20399;-66
2023/03/06 03:59:53;;;;;;;1999.90;999.90;;;5.50;99.90;;;;;;5053568;28;20997;-67
2023/03/06 04:02:20;;;;;;;1999.90;999.90;;;3.40;99.90;;;;;;5053439;28;20214;-67
2023/03/06 04:04:46;;;;;;;1999.90;999.90;;;3.50;99.90;;;;;;5053481;28;20159;-67
2023/03/06 04:07:12;;;;;;;1999.90;999.90;;;3.60;99.90;;;;;;5053309;28;20402;-67
2023/03/06 04:12:06;;;;;;;1999.90;999.90;;;3.40;99.90;;;;;;5021653;28;20209;-69
2023/03/06 04:14:31;;;;;;;1999.90;999.90;;;3.40;99.90;;;;;;5019065;28;20452;-69
2023/03/06 04:16:57;;;;;;;1999.90;999.90;;;3.40;99.90;;;;;;5016331;28;20493;-70
2023/03/06 04:19:22;;;;;;;1999.90;999.90;;;3.40;99.90;;;;;;5023598;28;20165;-70
2023/03/06 04:21:48;;;;;;;1999.90;999.90;;;3.40;99.90;;;;;;5023632;28;20239;-70
2023/03/06 04:24:14;;;;;;;1999.90;999.90;;;3.40;99.90;;;;;;5015606;28;20608;-70
2023/03/06 04:26:39;;;;;;;1999.90;999.90;;;3.40;99.90;;;;;;5021977;28;20592;-70
2023/03/06 04:29:05;;;;;;;1999.90;999.90;;;3.40;99.90;;;;;;5019348;28;20170;-70
2023/03/06 04:31:30;;;;;;;1999.90;999.90;;;3.40;99.90;;;;;;5015512;28;20204;-70
2023/03/06 04:33:56;;;;;;;1999.90;999.90;;;3.50;99.90;;;;;;5025629;28;20208;-70
2023/03/06 04:36:27;;;;;;;1999.90;999.90;;;3.50;99.90;;;;;;5026029;28;20205;-69
2023/03/06 04:38:52;;;;;;;1999.90;999.90;;;3.50;99.90;;;;;;5025529;28;20177;-70
2023/03/06 04:41:18;;;;;;;1999.90;999.90;;;3.50;99.90;;;;;;5017098;28;20454;-70
2023/03/06 04:43:45;;;;;;;1999.90;999.90;;;3.50;99.90;;;;;;5014862;28;20211;-70
2023/03/06 04:46:10;;;;;;;1999.90;999.90;;;3.60;99.90;;;;;;5015771;28;20711;-70
2023/03/06 04:48:36;;;;;;;1999.90;999.90;;;3.50;99.90;;;;;;5015080;28;20507;-70
2023/03/06 04:51:02;;;;;;;1999.90;999.90;;;3.50;99.90;;;;;;5023393;28;20188;-69
2023/03/06 04:53:27;;;;;;;1999.90;999.90;;;3.50;99.90;;;;;;5025261;28;20584;-70
2023/03/06 04:55:53;;;;;;;1999.90;999.90;;;3.50;99.90;;;;;;5024025;28;20494;-70
2023/03/06 04:58:19;;;;;;;1999.90;999.90;;;3.50;99.90;;;;;;5018038;28;20177;-70
2023/03/06 05:00:45;;;;;;;1999.90;999.90;;;3.50;99.90;;;;;;5013678;28;20280;-70
2023/03/06 05:03:11;;;;;;;1999.90;999.90;;;3.50;99.90;;;;;;5014574;28;20201;-70
2023/03/06 05:05:37;;;;;;;1999.90;999.90;;;3.50;99.90;;;;;;5016443;28;20173;-70
2023/03/06 05:08:02;;;;;;;1999.90;999.90;;;3.50;99.90;;;;;;5019218;28;20668;-70
2023/03/06 05:10:28;;;;;;;1999.90;999.90;;;3.50;99.90;;;;;;5014403;28;20259;-70
2023/03/06 05:12:54;;;;;;;1999.90;999.90;;;3.50;99.90;;;;;;5015143;28;20169;-70
2023/03/06 05:15:19;;;;;;;1999.90;999.90;;;3.50;99.90;;;;;;5014665;28;20243;-70
2023/03/06 05:17:46;;;;;;;1999.90;999.90;;;3.50;99.90;;;;;;5014934;28;20243;-70
2023/03/06 05:20:13;;;;;;;1999.90;999.90;;;3.50;99.90;;;;;;5015272;28;20185;-70
2023/03/06 05:22:39;;;;;;;1999.90;999.90;;;3.50;99.90;;;;;;5016082;28;20405;-70
2023/03/06 05:25:05;;;;;;;1999.90;999.90;;;3.40;99.90;;;;;;5016481;28;20454;-70
2023/03/06 05:27:31;;;;;;;1999.90;999.90;;;3.40;99.90;;;;;;5016389;28;20261;-70
2023/03/06 05:29:57;;;;;;;1999.90;999.90;;;3.40;99.90;;;;;;5012263;28;20860;-70
2023/03/06 05:32:23;;;;;;;1999.90;999.90;;;3.80;99.90;;;;;;5014476;28;20432;-70
2023/03/06 05:34:48;;;;;;;1999.90;999.90;;;3.40;99.90;;;;;;5015528;28;20268;-70
2023/03/06 05:37:14;;;;;;;1999.90;999.90;;;3.40;99.90;;;;;;5015397;28;20189;-70
2023/03/06 05:39:40;;;;;;;1999.90;999.90;;;3.40;99.90;;;;;;5015549;28;20173;-70
2023/03/06 05:42:05;;;;;;;1999.90;999.90;;;3.40;99.90;;;;;;5015737;28;20207;-70
2023/03/06 05:44:33;;;;;;;1999.90;999.90;;;3.40;99.90;;;;;;5018238;28;20173;-69
2023/03/06 05:46:59;;;;;;;1999.90;999.90;;;3.40;99.90;;;;;;5020472;28;20170;-69
2023/03/06 05:49:25;;;;;;;1999.90;999.90;;;3.40;99.90;;;;;;5022011;28;20989;-70
2023/03/06 05:51:50;;;;;;;1999.90;999.90;;;3.40;99.90;;;;;;5018596;28;20224;-69
2023/03/06 05:54:16;;;;;;;1999.90;999.90;;;3.40;99.90;;;;;;5012670;28;20239;-70
2023/03/06 05:56:42;;;;;;;1999.90;999.90;;;3.40;99.90;;;;;;5011986;28;20169;-70
2023/03/06 05:59:07;;;;;;;1999.90;999.90;;;3.30;99.90;;;;;;5012027;28;20177;-70
2023/03/06 06:01:33;;;;;;;1999.90;999.90;;;3.40;99.90;;;;;;5011846;28;20508;-70
2023/03/06 06:03:59;;;;;;;1999.90;999.90;;;3.40;99.90;;;;;;5014431;28;20169;-70
2023/03/06 06:06:24;;;;;;;1999.90;999.90;;;3.30;99.90;;;;;;5014834;28;20646;-70
2023/03/06 06:08:50;;;;;;;1999.90;999.90;;;3.30;99.90;;;;;;5021954;28;20200;-69
2023/03/06 06:11:17;;;;;;;1999.90;999.90;;;3.30;99.90;;;;;;5017915;28;20205;-69
2023/03/06 06:13:43;;;;;;;1999.90;999.90;;;3.30;99.90;;;;;;5011963;28;20173;-70
2023/03/06 06:16:17;;;;;;;1999.90;999.90;;;3.30;99.90;;;;;;5016414;28;21168;-70
2023/03/06 06:18:44;;;;;;;1999.90;999.90;;;3.40;99.90;;;;;;5011880;28;20178;-70
2023/03/06 06:21:12;;;;;;;1999.90;999.90;;;3.40;99.90;;;;;;5024827;28;20423;-70
2023/03/06 06:23:37;;;;;;;1999.90;999.90;;;3.40;99.90;;;;;;5028727;28;20408;-70
2023/03/06 06:26:05;;;;;;;1999.90;999.90;;;3.40;99.90;;;;;;5027431;28;20173;-70
2023/03/06 06:28:32;;;;;;;1999.90;999.90;;;3.40;99.90;;;;;;5027029;28;20169;-70
2023/03/06 06:30:58;;;;;;;1999.90;999.90;;;3.50;99.90;;;;;;5020905;28;20434;-70
2023/03/06 06:33:24;;;;;;;1999.90;999.90;;;3.50;99.90;;;;;;5015265;28;20177;-69
2023/03/06 06:35:50;;;;;;;1999.90;999.90;;;3.50;99.90;;;;;;5015229;28;20451;-70
2023/03/06 06:38:16;;;;;;;1999.90;999.90;;;3.50;99.90;;;;;;5015342;28;20462;-69
2023/03/06 06:40:41;;;;;;;1999.90;999.90;;;3.50;99.90;;;;;;5015236;28;21032;-70
2023/03/06 06:43:07;;;;;;;1999.90;999.90;;;3.50;99.90;;;;;;5015195;28;20193;-70
2023/03/06 06:45:32;;;;;;;1999.90;999.90;;;3.50;99.90;;;;;;5015194;28;20643;-69
2023/03/06 06:47:58;;;;;;;1999.90;999.90;;;3.50;99.90;;;;;;5015110;28;20252;-70
2023/03/06 06:50:23;;;;;;;1999.90;999.90;;;3.50;99.90;;;;;;5015297;28;20201;-70
2023/03/06 06:52:49;;;;;;;1999.90;999.90;;;3.60;99.90;;;;;;5014960;28;20169;-69
2023/03/06 06:55:15;;;;;;;1999.90;999.90;;;3.50;99.90;;;;;;5014925;28;20221;-70
2023/03/06 06:57:41;;;;;;;1999.90;999.90;;;3.50;99.90;;;;;;5014945;28;20583;-70
2023/03/06 07:00:08;;;;;;;1999.90;999.90;;;3.60;99.90;;;;;;5014841;28;20196;-70
2023/03/06 07:02:34;;;;;;;1999.90;999.90;;;3.60;99.90;;;;;;5014708;28;20408;-69
2023/03/06 07:04:59;;;;;;;1999.90;999.90;;;3.60;99.90;;;;;;5016232;28;20242;-70
2023/03/06 07:07:25;;;;;;;1999.90;999.90;;;3.50;99.90;;;;;;5020847;28;20643;-70
2023/03/06 07:09:50;;;;;;;1999.90;999.90;;;3.50;99.90;;;;;;5016648;28;20176;-69
2023/03/06 07:12:16;;;;;;;1999.90;999.90;;;3.60;99.90;;;;;;5014549;28;20181;-70
2023/03/06 07:14:42;;;;;;;1999.90;999.90;;;3.60;99.90;;;;;;5014677;28;20212;-70
2023/03/06 07:17:10;;;;;;;1999.90;999.90;;;3.60;99.90;;;;;;5015493;28;20200;-70
2023/03/06 07:19:35;;;;;;;1999.90;999.90;;;3.70;99.90;;;;;;5016233;28;20255;-70
2023/03/06 07:22:01;;;;;;;1999.90;999.90;;;3.70;99.90;;;;;;5014459;28;20442;-70
2023/03/06 07:24:27;;;;;;;1999.90;999.90;;;3.70;99.90;;;;;;5014412;28;20173;-69
2023/03/06 07:26:53;;;;;;;1999.90;999.90;;;3.70;99.90;;;;;;5014239;28;20173;-70
2023/03/06 07:29:18;;;;;;;1999.90;999.90;;;3.70;99.90;;;;;;5014406;28;20412;-70
2023/03/06 07:31:44;;;;;;;1999.90;999.90;;;3.70;99.90;;;;;;5013911;28;20239;-70
2023/03/06 07:34:13;;;;;;;1999.90;999.90;;;3.70;99.90;;;;;;5014176;28;20212;-70
2023/03/06 07:36:39;;;;;;;1999.90;999.90;;;3.70;99.90;;;;;;5014137;28;20177;-69
2023/03/06 07:39:06;;;;;;;1999.90;999.90;;;3.70;99.90;;;;;;5014240;28;20406;-70
2023/03/06 07:41:32;;;;;;;1999.90;999.90;;;3.70;99.90;;;;;;5017012;28;20432;-69
2023/03/06 07:43:58;;;;;;;1999.90;999.90;;;3.80;99.90;;;;;;5023068;28;20423;-69
2023/03/06 07:46:24;;;;;;;1999.90;999.90;;;3.80;99.90;;;;;;5015406;28;20807;-69
2023/03/06 07:48:50;;;;;;;1999.90;999.90;;;3.80;99.90;;;;;;5016227;28;20631;-70
2023/03/06 07:51:18;;;;;;;1999.90;999.90;;;3.80;99.90;;;;;;5015935;28;20275;-70
2023/03/06 07:53:45;;;;;;;1999.90;999.90;;;3.90;99.90;;;;;;5016634;28;20200;-70
2023/03/06 07:56:11;;;;;;;1999.90;999.90;;;4.00;99.90;;;;;;5016050;28;20459;-70
2023/03/06 07:58:39;;;;;;;1999.90;999.90;;;3.90;99.90;;;;;;5016196;28;20424;-70
2023/03/06 08:01:10;;;;;;;1999.90;999.90;;;4.00;99.90;;;;;;5015387;28;20468;-70
2023/03/06 08:03:36;;;;;;;1999.90;999.90;;;4.00;99.90;;;;;;5019388;28;20403;-69
2023/03/06 08:06:12;;;;;;;1999.90;999.90;;;4.00;99.90;;;;;;5023957;28;20181;-69
2023/03/06 08:08:40;;;;;;;1999.90;999.90;;;4.10;99.90;;;;;;5022647;28;20434;-69
2023/03/06 08:11:07;;;;;;;1999.90;999.90;;;4.10;99.90;;;;;;5022869;28;20448;-69
2023/03/06 08:13:33;;;;;;;1999.90;999.90;;;4.20;99.90;;;;;;5023072;28;20923;-70
2023/03/06 08:15:59;;;;;;;1999.90;999.90;;;4.20;99.90;;;;;;5022738;28;20463;-69
2023/03/06 08:18:25;;;;;;;1999.90;999.90;;;4.30;99.90;;;;;;5019323;28;20416;-70
2023/03/06 08:21:07;;;;;;;1999.90;999.90;;;4.30;99.90;;;;;;5013400;28;20197;-69
2023/03/06 08:23:33;;;;;;;1999.90;999.90;;;4.40;99.90;;;;;;5013193;28;21009;-70
2023/03/06 08:26:01;;;;;;;1999.90;999.90;;;4.40;99.90;;;;;;5013619;28;20932;-70
2023/03/06 08:28:27;;;;;;;1999.90;999.90;;;4.40;99.90;;;;;;5017885;28;20893;-70
2023/03/06 08:30:54;;;;;;;1999.90;999.90;;;4.50;99.90;;;;;;5013207;28;20461;-70
2023/03/06 08:33:20;;;;;;;1999.90;999.90;;;4.50;99.90;;;;;;5016524;28;20416;-71
2023/03/06 08:35:46;;;;;;;1999.90;999.90;;;4.60;99.90;;;;;;5022948;28;20459;-70
2023/03/06 08:38:11;;;;;;;1999.90;999.90;;;4.90;99.90;;;;;;5020410;28;20408;-69
2023/03/06 08:40:37;;;;;;;1999.90;999.90;;;4.70;99.90;;;;;;5022866;28;20188;-69
2023/03/06 08:43:03;;;;;;;1999.90;999.90;;;4.70;99.90;;;;;;5019531;28;20244;-71
2023/03/06 08:45:28;;;;;;;1999.90;999.90;;;4.60;99.90;;;;;;5017657;28;20180;-71
2023/03/06 08:47:54;;;;;;;1999.90;999.90;;;4.60;99.90;;;;;;5018251;28;20177;-70
2023/03/06 08:50:20;;;;;;;1999.90;999.90;;;;;;;;;;5018682;28;20577;-71
2023/03/06 08:52:45;;;;;;;1999.90;999.90;;;4.50;99.90;;;;;;5018500;28;20181;-71
2023/03/06 08:55:11;;;;;;;1999.90;999.90;;;4.50;99.90;;;;;;5018824;28;20876;-70
2023/03/06 08:57:37;;;;;;;1999.90;999.90;;;4.40;99.90;;;;;;5019487;28;20176;-71
2023/03/06 09:00:07;;;;;;;1999.90;999.90;;;6.00;99.90;;;;;;5018129;28;20191;-71
2023/03/06 09:02:34;;;;;;;1999.90;999.90;;;4.40;99.90;;;;;;5019129;28;20216;-68
2023/03/06 09:05:00;;;;;;;1999.90;999.90;;;4.50;99.90;;;;;;5012183;28;20427;-68
2023/03/06 09:07:26;;;;;;;1999.90;999.90;;;4.60;99.90;;;;;;5019714;28;20910;-68
2023/03/06 09:09:56;;;;;;;1999.90;999.90;;;4.60;99.90;;;;;;5021040;28;20423;-68
2023/03/06 09:12:22;;;;;;;1999.90;999.90;;;4.60;99.90;;;;;;5017356;28;20424;-68
2023/03/06 09:14:48;;;;;;;1999.90;999.90;;;4.70;99.90;;;;;;5018091;28;20456;-68
2023/03/06 09:17:13;;;;;;;1999.90;999.90;;;4.80;99.90;;;;;;5020385;28;20412;-70
2023/03/06 09:19:39;;;;;;;1999.90;999.90;;;4.90;99.90;;;;;;5022709;28;20181;-68
2023/03/06 09:22:05;;;;;;;1999.90;999.90;;;4.80;99.90;;;;;;5015798;28;20259;-68
2023/03/06 09:24:31;;;;;;;1999.90;999.90;;;4.90;99.90;;;;;;5002552;28;20702;-69
2023/03/06 09:26:56;;;;;;;1999.90;999.90;;;5.50;99.90;;;;;;5015676;28;20458;-69
2023/03/06 09:29:22;;;;;;;1999.90;999.90;;;5.00;99.90;;;;;;5018224;28;20917;-68
2023/03/06 09:31:48;;;;;;;1999.90;999.90;;;5.00;99.90;;;;;;5033352;28;20196;-69
2023/03/06 09:34:14;;;;;;;1999.90;999.90;;;5.10;99.90;;;;;;5032485;28;20204;-68
2023/03/06 09:36:40;;;;;;;1999.90;999.90;;;5.10;99.90;;;;;;5031838;28;20660;-68
2023/03/06 09:39:06;;;;;;;1999.90;999.90;;;5.20;99.90;;;;;;5039518;28;20199;-69
2023/03/06 09:41:36;;;;;;;1999.90;999.90;;;5.30;99.90;;;;;;5038504;28;20431;-68
2023/03/06 09:44:04;;;;;;;1999.90;999.90;;;5.30;99.90;;;;;;5038737;28;20190;-68
2023/03/06 09:46:54;;;;;;;1999.90;999.90;;;5.30;99.90;;;;;;5038006;28;20418;-68
2023/03/06 09:49:41;;;;;;;1999.90;999.90;;;5.20;99.90;;;;;;5037649;28;20434;-68
2023/03/06 09:52:16;;;;;;;1999.90;999.90;;;5.10;99.90;;;;;;5039380;28;20444;-68
2023/03/06 09:54:44;;;;;;;1999.90;999.90;;;5.00;99.90;;;;;;5041166;28;20454;-69
2023/03/06 09:57:40;;;;;;;1999.90;999.90;;;5.10;99.90;;;;;;5043092;28;20418;-68
2023/03/06 10:00:19;;;;;;;1999.90;999.90;;;5.20;99.90;;;;;;5043028;28;20450;-68
2023/03/06 10:02:55;;;;;;;1999.90;999.90;;;5.30;99.90;;;;;;5044000;28;20411;-68
2023/03/06 10:05:26;;;;;;;1999.90;999.90;;;5.40;99.90;;;;;;5043523;28;20441;-67
2023/03/06 10:08:22;;;;;;;1999.90;999.90;;;5.40;99.90;;;;;;5039162;28;20437;-68
2023/03/06 10:11:04;;;;;;;1999.90;999.90;;;5.50;99.90;;;;;;5037265;28;20454;-68
2023/03/06 10:13:40;;;;;;;1999.90;999.90;;;5.40;99.90;;;;;;5036842;28;20772;-68
2023/03/06 10:16:30;;;;;;;1999.90;999.90;;;5.40;99.90;;;;;;5037322;28;20462;-69
2023/03/06 10:19:00;;;;;;;1999.90;999.90;;;5.40;99.90;;;;;;5037768;28;20414;-69
2023/03/06 10:21:48;;;;;;;1999.90;999.90;;;5.40;99.90;;;;;;5038092;28;20506;-69
2023/03/06 10:24:28;;;;;;;1999.90;999.90;;;5.40;99.90;;;;;;5037814;28;20415;-69
2023/03/06 10:27:02;;;;;;;1999.90;999.90;;;5.40;99.90;;;;;;5034561;28;20421;-68
2023/03/06 10:29:55;;;;;;;1999.90;999.90;;;5.40;99.90;;;;;;5036939;28;20545;-69
2023/03/06 10:32:44;;;;;;;1999.90;999.90;;;5.30;99.90;;;;;;5035942;28;20419;-68
2023/03/06 10:35:17;;;;;;;1999.90;999.90;;;5.30;99.90;;;;;;5038840;28;20809;-67
2023/03/06 10:37:43;;;;;;;1999.90;999.90;;;5.30;99.90;;;;;;5037834;28;20764;-70
2023/03/06 10:40:20;;;;;;;1999.90;999.90;;;5.40;99.90;;;;;;5038228;28;20533;-71
2023/03/06 10:42:46;;;;;;;1999.90;999.90;;;5.30;99.90;;;;;;5042750;28;20164;-68
2023/03/06 10:45:14;;;;;;;1999.90;999.90;;;5.20;99.90;;;;;;5041728;28;20942;-67
2023/03/06 10:47:40;;;;;;;1999.90;999.90;;;5.40;99.90;;;;;;5038242;28;20176;-69
2023/03/06 10:50:23;;;;;;;1999.90;999.90;;;5.30;99.90;;;;;;5039554;28;20490;-66
2023/03/06 10:53:00;;;;;;;1999.90;999.90;;;5.30;99.90;;;;;;5038383;28;20422;-67
2023/03/06 10:55:29;;;;;;;1999.90;999.90;;;5.30;99.90;;;;;;5039301;28;20455;-67
2023/03/06 10:57:56;;;;;;;1999.90;999.90;;;5.30;99.90;;;;;;5040097;28;20419;-67
2023/03/06 11:00:31;;;;;;;1999.90;999.90;;;5.30;99.90;;;;;;5040692;28;20538;-67
2023/03/06 11:03:23;;;;;;;1999.90;999.90;;;5.50;99.90;;;;;;5040399;28;20415;-67
2023/03/06 11:06:01;;;;;;;1999.90;999.90;;;5.50;99.90;;;;;;5029990;28;20950;-73
2023/03/06 11:08:28;;;;;;;1999.90;999.90;;;5.60;99.90;;;;;;5036231;28;20425;-68
2023/03/06 11:11:03;;;;;;;1999.90;999.90;;;5.60;99.90;;;;;;5036775;28;21022;-67
2023/03/06 11:13:52;;;;;;;1999.90;999.90;;;5.60;99.90;;;;;;5035945;28;20484;-73
2023/03/06 11:16:29;;;;;;;1999.90;999.90;;;5.50;99.90;;;;;;5032680;28;20553;-73
2023/03/06 11:19:01;;;;;;;1999.90;999.90;;;5.60;99.90;;;;;;5036976;28;20422;-68
2023/03/06 11:21:32;;;;;;;1999.90;999.90;;;5.60;99.90;;;;;;5040869;28;20434;-68
2023/03/06 11:24:04;;;;;;;1999.90;999.90;;;5.90;99.90;;;;;;5038659;28;20477;-74
2023/03/06 11:26:45;;;;;;;1999.90;999.90;;;5.80;99.90;;;;;;5030937;28;20419;-71
2023/03/06 11:29:26;;;;;;;1999.90;999.90;;;5.80;99.90;;;;;;5030862;28;20480;-71
2023/03/06 11:31:57;;;;;;;1999.90;999.90;;;5.80;99.90;;;;;;5032896;28;20435;-75
2023/03/06 11:35:03;;;;;;;1999.90;999.90;;;5.80;99.90;;;;;;5032266;28;20554;-75
2023/03/06 11:37:31;;;;;;;1999.90;999.90;;;5.80;99.90;;;;;;5031709;28;20433;-73
2023/03/06 11:40:11;;;;;;;1999.90;999.90;;;5.90;99.90;;;;;;5037553;28;21328;-67
2023/03/06 11:42:54;;;;;;;1999.90;999.90;;;6.00;99.90;;;;;;5037501;28;20415;-67
2023/03/06 11:45:31;;;;;;;1999.90;999.90;;;6.00;99.90;;;;;;5041008;28;20426;-68
2023/03/06 11:48:07;;;;;;;1999.90;999.90;;;6.00;99.90;;;;;;5039643;28;20446;-69
2023/03/06 11:50:45;;;;;;;1999.90;999.90;;;5.80;99.90;;;;;;5039965;28;20431;-69
2023/03/06 11:53:38;;;;;;;1999.90;999.90;;;5.80;99.90;;;;;;5039228;28;20419;-67
2023/03/06 11:56:18;;;;;;;1999.90;999.90;;;5.90;99.90;;;;;;5037048;28;20992;-67
2023/03/06 11:58:59;;;;;;;1999.90;999.90;;;5.90;99.90;;;;;;5038339;28;20414;-68
2023/03/06 12:01:51;;;;;;;1999.90;999.90;;;5.90;99.90;;;;;;5038418;28;21122;-67
2023/03/06 12:04:38;;;;;;;1999.90;999.90;;;5.90;99.90;;;;;;5036560;28;20548;-67
2023/03/06 12:07:23;;;;;;;1999.90;999.90;;;5.90;99.90;;;;;;5038250;28;20938;-67
2023/03/06 12:10:06;;;;;;;1999.90;999.90;;;5.40;99.90;;;;;;5038735;28;20407;-68
2023/03/06 12:12:43;;;;;;;1999.90;999.90;;;5.80;99.90;;;;;;5039616;28;20493;-68
2023/03/06 12:15:26;;;;;;;1999.90;999.90;;;5.80;99.90;;;;;;5038973;28;20458;-67
2023/03/06 12:18:22;;;;;;;1999.90;999.90;;;5.80;99.90;;;;;;5038607;28;20482;-67
2023/03/06 12:21:14;;;;;;;1999.90;999.90;;;5.80;99.90;;;;;;5038440;28;20489;-67